sensor_id;sensor_type;location;lat;lon;timestamp;temperature;humidity
22522;DHT22;11427;51.062;17.044;2022-11-20T00:07:05;-0.10;99.90
22522;DHT22;11427;51.062;17.044;2022-11-20T00:22:07;-1.80;99.90
22522;DHT22;11427;51.062;17.044;2022-11-20T00:37:09;0.70;99.90
22522;DHT22;11427;51.062;17.044;2022-11-20T00:52:11;-1.80;99.90
22522;DHT22;11427;51.062;17.044;2022-11-20T01:07:13;-1.50;99.90
22522;DHT22;11427;51.062;17.044;2022-11-20T01:22:15;-1.80;99.90
22522;DHT22;11427;51.062;17.044;2022-11-20T01:37:17;-2.00;99.90
22522;DHT22;11427;51.062;17.044;2022-11-20T01:52:36;-2.10;99.90
22522;DHT22;11427;51.062;17.044;2022-11-20T02:07:40;-1.70;99.90
22522;DHT22;11427;51.062;17.044;2022-11-20T02:22:53;-1.80;99.90
22522;DHT22;11427;51.062;17.044;2022-11-20T02:37:59;-2.00;99.90
22522;DHT22;11427;51.062;17.044;2022-11-20T02:53:02;-1.90;99.90
22522;DHT22;11427;51.062;17.044;2022-11-20T03:08:04;-1.20;99.90
22522;DHT22;11427;51.062;17.044;2022-11-20T03:23:05;-1.90;99.90
22522;DHT22;11427;51.062;17.044;2022-11-20T03:38:07;-2.20;99.90
22522;DHT22;11427;51.062;17.044;2022-11-20T03:53:09;0.20;99.90
22522;DHT22;11427;51.062;17.044;2022-11-20T04:08:11;-2.50;99.90
22522;DHT22;11427;51.062;17.044;2022-11-20T04:38:15;-3.50;99.90
22522;DHT22;11427;51.062;17.044;2022-11-20T04:53:18;-3.60;99.90
22522;DHT22;11427;51.062;17.044;2022-11-20T05:08:20;-3.30;99.90
22522;DHT22;11427;51.062;17.044;2022-11-20T05:23:22;-3.40;99.90
22522;DHT22;11427;51.062;17.044;2022-11-20T05:38:24;-3.80;99.90
22522;DHT22;11427;51.062;17.044;2022-11-20T05:53:26;-3.00;99.90
22522;DHT22;11427;51.062;17.044;2022-11-20T06:08:28;-2.70;99.90
22522;DHT22;11427;51.062;17.044;2022-11-20T06:23:32;-2.80;99.90
22522;DHT22;11427;51.062;17.044;2022-11-20T06:38:34;-3.50;99.90
22522;DHT22;11427;51.062;17.044;2022-11-20T06:53:36;-1.60;99.90
22522;DHT22;11427;51.062;17.044;2022-11-20T07:08:38;-1.10;99.90
22522;DHT22;11427;51.062;17.044;2022-11-20T07:23:40;-3.70;99.90
22522;DHT22;11427;51.062;17.044;2022-11-20T07:38:42;-1.80;99.90
22522;DHT22;11427;51.062;17.044;2022-11-20T07:53:44;-2.30;99.90
22522;DHT22;11427;51.062;17.044;2022-11-20T08:08:46;-1.50;99.90
22522;DHT22;11427;51.062;17.044;2022-11-20T08:23:48;-0.20;99.90
22522;DHT22;11427;51.062;17.044;2022-11-20T08:38:52;0.90;99.90
22522;DHT22;11427;51.062;17.044;2022-11-20T08:53:54;2.00;99.90
22522;DHT22;11427;51.062;17.044;2022-11-20T09:08:56;3.20;99.90
22522;DHT22;11427;51.062;17.044;2022-11-20T09:24:05;3.10;99.90
22522;DHT22;11427;51.062;17.044;2022-11-20T09:39:06;3.20;99.90
22522;DHT22;11427;51.062;17.044;2022-11-20T16:06:56;0.60;99.90
22522;DHT22;11427;51.062;17.044;2022-11-20T16:21:58;0.90;99.90
22522;DHT22;11427;51.062;17.044;2022-11-20T16:37:03;0.90;99.90
22522;DHT22;11427;51.062;17.044;2022-11-20T16:52:05;1.90;99.90
22522;DHT22;11427;51.062;17.044;2022-11-20T17:07:08;0.90;99.90
22522;DHT22;11427;51.062;17.044;2022-11-20T17:22:10;1.00;99.90
22522;DHT22;11427;51.062;17.044;2022-11-20T17:37:12;0.50;99.90
22522;DHT22;11427;51.062;17.044;2022-11-20T17:52:14;0.40;99.90
22522;DHT22;11427;51.062;17.044;2022-11-20T18:07:16;0.40;99.90
22522;DHT22;11427;51.062;17.044;2022-11-20T18:22:19;0.40;99.90
22522;DHT22;11427;51.062;17.044;2022-11-20T18:37:21;1.60;99.90
22522;DHT22;11427;51.062;17.044;2022-11-20T18:52:27;0.00;99.90
22522;DHT22;11427;51.062;17.044;2022-11-20T19:07:30;-0.10;99.90
22522;DHT22;11427;51.062;17.044;2022-11-20T19:22:32;-0.30;99.90
22522;DHT22;11427;51.062;17.044;2022-11-20T19:37:34;-0.60;99.90
22522;DHT22;11427;51.062;17.044;2022-11-20T19:52:36;-0.50;99.90
22522;DHT22;11427;51.062;17.044;2022-11-20T20:07:38;-0.30;99.90
22522;DHT22;11427;51.062;17.044;2022-11-20T20:22:41;-0.30;99.90
22522;DHT22;11427;51.062;17.044;2022-11-20T20:37:43;0.00;99.90
22522;DHT22;11427;51.062;17.044;2022-11-20T20:52:44;0.00;99.90
22522;DHT22;11427;51.062;17.044;2022-11-20T21:07:46;-0.10;99.90
22522;DHT22;11427;51.062;17.044;2022-11-20T21:23:09;-0.30;99.90
22522;DHT22;11427;51.062;17.044;2022-11-20T21:38:11;-0.40;99.90
22522;DHT22;11427;51.062;17.044;2022-11-20T21:53:13;0.10;99.90
22522;DHT22;11427;51.062;17.044;2022-11-20T22:08:15;1.40;99.90
22522;DHT22;11427;51.062;17.044;2022-11-20T22:23:17;-0.90;99.90
22522;DHT22;11427;51.062;17.044;2022-11-20T22:38:19;-1.00;99.90
22522;DHT22;11427;51.062;17.044;2022-11-20T22:53:21;-1.20;99.90
22522;DHT22;11427;51.062;17.044;2022-11-20T23:08:22;-0.10;99.90
22522;DHT22;11427;51.062;17.044;2022-11-20T23:23:24;-1.60;99.90
22522;DHT22;11427;51.062;17.044;2022-11-20T23:38:26;-1.80;99.90
22522;DHT22;11427;51.062;17.044;2022-11-20T23:53:28;-2.20;99.90
